sensor_id;sensor_type;location;lat;lon;timestamp;P1;durP1;ratioP1;P2;durP2;ratioP2
70850;SDS011;58475;49.662;9.636;2023-07-08T00:00:43;10.45;;;4.85;;
70850;SDS011;58475;49.662;9.636;2023-07-08T00:03:10;9.38;;;5.10;;
70850;SDS011;58475;49.662;9.636;2023-07-08T00:05:36;11.52;;;5.30;;
70850;SDS011;58475;49.662;9.636;2023-07-08T00:08:02;8.82;;;4.78;;
70850;SDS011;58475;49.662;9.636;2023-07-08T00:10:27;9.05;;;4.82;;
70850;SDS011;58475;49.662;9.636;2023-07-08T00:12:54;9.07;;;4.90;;
70850;SDS011;58475;49.662;9.636;2023-07-08T00:15:21;8.52;;;4.53;;
70850;SDS011;58475;49.662;9.636;2023-07-08T00:17:49;9.75;;;4.82;;
70850;SDS011;58475;49.662;9.636;2023-07-08T00:20:19;9.07;;;4.70;;
70850;SDS011;58475;49.662;9.636;2023-07-08T00:22:48;9.23;;;4.90;;
70850;SDS011;58475;49.662;9.636;2023-07-08T00:25:15;11.98;;;5.78;;
70850;SDS011;58475;49.662;9.636;2023-07-08T00:27:41;9.90;;;4.70;;
70850;SDS011;58475;49.662;9.636;2023-07-08T00:30:16;9.07;;;4.78;;
70850;SDS011;58475;49.662;9.636;2023-07-08T00:32:48;9.23;;;5.15;;
70850;SDS011;58475;49.662;9.636;2023-07-08T00:35:42;8.43;;;4.60;;
70850;SDS011;58475;49.662;9.636;2023-07-08T00:38:23;8.60;;;4.78;;
70850;SDS011;58475;49.662;9.636;2023-07-08T00:43:55;10.05;;;4.60;;
70850;SDS011;58475;49.662;9.636;2023-07-08T00:51:25;9.60;;;4.38;;
70850;SDS011;58475;49.662;9.636;2023-07-08T00:53:51;9.93;;;4.90;;
70850;SDS011;58475;49.662;9.636;2023-07-08T00:56:26;10.23;;;4.70;;
70850;SDS011;58475;49.662;9.636;2023-07-08T01:01:21;9.40;;;5.03;;
70850;SDS011;58475;49.662;9.636;2023-07-08T01:03:58;9.82;;;4.50;;
70850;SDS011;58475;49.662;9.636;2023-07-08T01:06:45;8.93;;;4.57;;
70850;SDS011;58475;49.662;9.636;2023-07-08T01:09:18;8.13;;;4.50;;
70850;SDS011;58475;49.662;9.636;2023-07-08T01:11:43;8.27;;;4.60;;
70850;SDS011;58475;49.662;9.636;2023-07-08T01:14:11;8.30;;;4.53;;
70850;SDS011;58475;49.662;9.636;2023-07-08T01:16:40;11.00;;;5.28;;
70850;SDS011;58475;49.662;9.636;2023-07-08T01:19:06;10.10;;;5.00;;
70850;SDS011;58475;49.662;9.636;2023-07-08T01:21:38;8.98;;;4.90;;
70850;SDS011;58475;49.662;9.636;2023-07-08T01:24:10;9.40;;;4.78;;
70850;SDS011;58475;49.662;9.636;2023-07-08T01:26:37;8.88;;;4.78;;
70850;SDS011;58475;49.662;9.636;2023-07-08T01:29:06;9.40;;;4.72;;
70850;SDS011;58475;49.662;9.636;2023-07-08T01:31:33;11.25;;;5.20;;
70850;SDS011;58475;49.662;9.636;2023-07-08T01:33:59;10.25;;;4.88;;
70850;SDS011;58475;49.662;9.636;2023-07-08T01:36:24;8.82;;;4.63;;
70850;SDS011;58475;49.662;9.636;2023-07-08T01:38:54;9.32;;;5.15;;
70850;SDS011;58475;49.662;9.636;2023-07-08T01:41:20;8.77;;;4.97;;
70850;SDS011;58475;49.662;9.636;2023-07-08T01:43:45;11.25;;;4.97;;
70850;SDS011;58475;49.662;9.636;2023-07-08T01:46:15;9.52;;;4.93;;
70850;SDS011;58475;49.662;9.636;2023-07-08T01:48:52;9.48;;;5.32;;
70850;SDS011;58475;49.662;9.636;2023-07-08T01:51:21;10.75;;;5.55;;
70850;SDS011;58475;49.662;9.636;2023-07-08T01:53:47;10.02;;;5.65;;
70850;SDS011;58475;49.662;9.636;2023-07-08T01:56:13;9.07;;;5.07;;
70850;SDS011;58475;49.662;9.636;2023-07-08T01:58:40;9.43;;;4.63;;
70850;SDS011;58475;49.662;9.636;2023-07-08T02:01:06;9.88;;;5.18;;
70850;SDS011;58475;49.662;9.636;2023-07-08T02:03:31;9.27;;;5.20;;
70850;SDS011;58475;49.662;9.636;2023-07-08T02:05:57;8.35;;;4.63;;
70850;SDS011;58475;49.662;9.636;2023-07-08T02:08:23;10.50;;;5.45;;
70850;SDS011;58475;49.662;9.636;2023-07-08T02:10:52;9.63;;;4.82;;
70850;SDS011;58475;49.662;9.636;2023-07-08T02:13:20;8.18;;;4.35;;
70850;SDS011;58475;49.662;9.636;2023-07-08T02:15:47;9.98;;;4.80;;
70850;SDS011;58475;49.662;9.636;2023-07-08T02:18:12;9.18;;;5.00;;
70850;SDS011;58475;49.662;9.636;2023-07-08T02:20:38;9.73;;;5.00;;
70850;SDS011;58475;49.662;9.636;2023-07-08T02:23:03;9.80;;;5.22;;
70850;SDS011;58475;49.662;9.636;2023-07-08T02:25:28;8.98;;;5.07;;
70850;SDS011;58475;49.662;9.636;2023-07-08T02:27:54;9.82;;;5.05;;
70850;SDS011;58475;49.662;9.636;2023-07-08T02:30:22;12.63;;;4.85;;
70850;SDS011;58475;49.662;9.636;2023-07-08T02:32:48;9.27;;;4.90;;
70850;SDS011;58475;49.662;9.636;2023-07-08T02:35:21;10.43;;;5.20;;
70850;SDS011;58475;49.662;9.636;2023-07-08T02:37:47;8.50;;;4.72;;
70850;SDS011;58475;49.662;9.636;2023-07-08T02:40:13;8.95;;;4.97;;
70850;SDS011;58475;49.662;9.636;2023-07-08T02:42:39;10.70;;;5.38;;
70850;SDS011;58475;49.662;9.636;2023-07-08T02:45:04;9.18;;;5.00;;
70850;SDS011;58475;49.662;9.636;2023-07-08T02:47:30;10.13;;;4.78;;
70850;SDS011;58475;49.662;9.636;2023-07-08T02:49:56;7.97;;;4.68;;
70850;SDS011;58475;49.662;9.636;2023-07-08T02:52:21;8.40;;;4.38;;
70850;SDS011;58475;49.662;9.636;2023-07-08T02:54:46;10.32;;;5.50;;
70850;SDS011;58475;49.662;9.636;2023-07-08T02:57:12;10.60;;;5.07;;
70850;SDS011;58475;49.662;9.636;2023-07-08T02:59:37;9.05;;;4.82;;
70850;SDS011;58475;49.662;9.636;2023-07-08T03:02:03;9.27;;;4.65;;
70850;SDS011;58475;49.662;9.636;2023-07-08T03:04:29;10.65;;;5.20;;
70850;SDS011;58475;49.662;9.636;2023-07-08T03:06:55;10.65;;;5.00;;
70850;SDS011;58475;49.662;9.636;2023-07-08T03:09:21;11.27;;;5.18;;
70850;SDS011;58475;49.662;9.636;2023-07-08T03:11:46;9.50;;;5.30;;
70850;SDS011;58475;49.662;9.636;2023-07-08T03:14:13;10.05;;;5.53;;
70850;SDS011;58475;49.662;9.636;2023-07-08T03:16:38;9.15;;;4.65;;
70850;SDS011;58475;49.662;9.636;2023-07-08T03:19:03;8.45;;;4.75;;
70850;SDS011;58475;49.662;9.636;2023-07-08T03:21:30;9.60;;;5.00;;
70850;SDS011;58475;49.662;9.636;2023-07-08T03:23:56;8.57;;;5.20;;
70850;SDS011;58475;49.662;9.636;2023-07-08T03:26:22;9.88;;;5.22;;
70850;SDS011;58475;49.662;9.636;2023-07-08T03:28:50;9.10;;;4.70;;
70850;SDS011;58475;49.662;9.636;2023-07-08T03:31:17;9.35;;;4.90;;
70850;SDS011;58475;49.662;9.636;2023-07-08T03:33:42;10.02;;;5.22;;
70850;SDS011;58475;49.662;9.636;2023-07-08T03:36:09;12.10;;;5.05;;
70850;SDS011;58475;49.662;9.636;2023-07-08T03:41:04;10.35;;;5.60;;
70850;SDS011;58475;49.662;9.636;2023-07-08T03:43:30;9.73;;;4.95;;
70850;SDS011;58475;49.662;9.636;2023-07-08T03:45:55;10.18;;;5.32;;
70850;SDS011;58475;49.662;9.636;2023-07-08T03:48:22;9.65;;;5.20;;
70850;SDS011;58475;49.662;9.636;2023-07-08T03:50:48;9.50;;;5.10;;
70850;SDS011;58475;49.662;9.636;2023-07-08T03:53:14;8.98;;;5.00;;
70850;SDS011;58475;49.662;9.636;2023-07-08T03:55:39;9.48;;;4.90;;
70850;SDS011;58475;49.662;9.636;2023-07-08T03:58:05;9.15;;;4.70;;
70850;SDS011;58475;49.662;9.636;2023-07-08T04:00:32;9.45;;;5.15;;
70850;SDS011;58475;49.662;9.636;2023-07-08T04:02:59;9.23;;;5.38;;
70850;SDS011;58475;49.662;9.636;2023-07-08T04:05:25;10.02;;;5.38;;
70850;SDS011;58475;49.662;9.636;2023-07-08T04:07:51;10.23;;;5.10;;
70850;SDS011;58475;49.662;9.636;2023-07-08T04:10:16;12.20;;;5.28;;
70850;SDS011;58475;49.662;9.636;2023-07-08T04:12:42;9.98;;;5.20;;
70850;SDS011;58475;49.662;9.636;2023-07-08T04:15:08;9.00;;;5.20;;
70850;SDS011;58475;49.662;9.636;2023-07-08T04:17:37;9.35;;;5.00;;
70850;SDS011;58475;49.662;9.636;2023-07-08T04:20:17;10.18;;;5.10;;
70850;SDS011;58475;49.662;9.636;2023-07-08T04:22:44;11.48;;;4.95;;
70850;SDS011;58475;49.662;9.636;2023-07-08T04:25:10;9.73;;;5.22;;
70850;SDS011;58475;49.662;9.636;2023-07-08T04:27:37;9.77;;;5.07;;
70850;SDS011;58475;49.662;9.636;2023-07-08T04:30:03;9.75;;;5.22;;
70850;SDS011;58475;49.662;9.636;2023-07-08T04:32:29;10.30;;;5.22;;
70850;SDS011;58475;49.662;9.636;2023-07-08T04:34:55;10.60;;;5.75;;
70850;SDS011;58475;49.662;9.636;2023-07-08T04:37:21;9.60;;;5.40;;
70850;SDS011;58475;49.662;9.636;2023-07-08T04:39:46;10.48;;;5.68;;
70850;SDS011;58475;49.662;9.636;2023-07-08T04:42:12;10.23;;;5.50;;
70850;SDS011;58475;49.662;9.636;2023-07-08T04:44:41;9.23;;;4.88;;
70850;SDS011;58475;49.662;9.636;2023-07-08T04:47:07;13.25;;;5.80;;
70850;SDS011;58475;49.662;9.636;2023-07-08T04:49:33;10.65;;;5.60;;
70850;SDS011;58475;49.662;9.636;2023-07-08T04:51:59;12.05;;;5.75;;
70850;SDS011;58475;49.662;9.636;2023-07-08T04:54:26;10.80;;;5.78;;
70850;SDS011;58475;49.662;9.636;2023-07-08T04:56:52;9.48;;;5.60;;
70850;SDS011;58475;49.662;9.636;2023-07-08T04:59:19;11.02;;;5.88;;
70850;SDS011;58475;49.662;9.636;2023-07-08T05:01:46;9.70;;;5.70;;
70850;SDS011;58475;49.662;9.636;2023-07-08T05:04:13;12.00;;;6.00;;
70850;SDS011;58475;49.662;9.636;2023-07-08T05:06:39;11.38;;;5.50;;
70850;SDS011;58475;49.662;9.636;2023-07-08T05:09:05;10.45;;;6.32;;
70850;SDS011;58475;49.662;9.636;2023-07-08T05:11:30;9.65;;;5.70;;
70850;SDS011;58475;49.662;9.636;2023-07-08T05:13:56;10.48;;;5.45;;
70850;SDS011;58475;49.662;9.636;2023-07-08T05:16:22;10.27;;;5.70;;
70850;SDS011;58475;49.662;9.636;2023-07-08T05:18:48;11.15;;;5.63;;
70850;SDS011;58475;49.662;9.636;2023-07-08T05:21:13;10.30;;;5.57;;
70850;SDS011;58475;49.662;9.636;2023-07-08T05:23:39;11.45;;;6.03;;
70850;SDS011;58475;49.662;9.636;2023-07-08T05:26:05;10.52;;;5.70;;
70850;SDS011;58475;49.662;9.636;2023-07-08T05:28:34;9.75;;;5.55;;
70850;SDS011;58475;49.662;9.636;2023-07-08T05:31:00;11.48;;;5.90;;
70850;SDS011;58475;49.662;9.636;2023-07-08T05:33:26;12.10;;;5.75;;
70850;SDS011;58475;49.662;9.636;2023-07-08T05:35:53;11.10;;;5.82;;
70850;SDS011;58475;49.662;9.636;2023-07-08T05:38:19;9.85;;;5.45;;
70850;SDS011;58475;49.662;9.636;2023-07-08T05:40:54;11.20;;;6.28;;
70850;SDS011;58475;49.662;9.636;2023-07-08T05:43:21;10.55;;;5.57;;
70850;SDS011;58475;49.662;9.636;2023-07-08T05:45:47;12.45;;;6.20;;
70850;SDS011;58475;49.662;9.636;2023-07-08T05:48:12;11.05;;;5.55;;
70850;SDS011;58475;49.662;9.636;2023-07-08T05:50:38;9.02;;;5.30;;
70850;SDS011;58475;49.662;9.636;2023-07-08T05:53:04;10.27;;;5.60;;
70850;SDS011;58475;49.662;9.636;2023-07-08T05:55:30;10.88;;;5.72;;
70850;SDS011;58475;49.662;9.636;2023-07-08T05:57:59;11.85;;;6.10;;
70850;SDS011;58475;49.662;9.636;2023-07-08T06:00:24;9.93;;;5.75;;
70850;SDS011;58475;49.662;9.636;2023-07-08T06:02:49;10.93;;;5.97;;
70850;SDS011;58475;49.662;9.636;2023-07-08T06:05:15;9.73;;;5.63;;
70850;SDS011;58475;49.662;9.636;2023-07-08T06:07:40;9.30;;;5.90;;
70850;SDS011;58475;49.662;9.636;2023-07-08T06:10:06;11.02;;;5.68;;
70850;SDS011;58475;49.662;9.636;2023-07-08T06:12:32;10.48;;;5.97;;
70850;SDS011;58475;49.662;9.636;2023-07-08T06:14:57;11.90;;;6.00;;
70850;SDS011;58475;49.662;9.636;2023-07-08T06:17:22;11.32;;;5.75;;
70850;SDS011;58475;49.662;9.636;2023-07-08T06:19:48;9.20;;;5.63;;
70850;SDS011;58475;49.662;9.636;2023-07-08T06:22:14;9.85;;;6.10;;
70850;SDS011;58475;49.662;9.636;2023-07-08T06:24:39;9.35;;;5.90;;
70850;SDS011;58475;49.662;9.636;2023-07-08T06:27:05;10.68;;;5.72;;
70850;SDS011;58475;49.662;9.636;2023-07-08T06:29:30;8.73;;;5.32;;
70850;SDS011;58475;49.662;9.636;2023-07-08T06:31:56;10.38;;;5.63;;
70850;SDS011;58475;49.662;9.636;2023-07-08T06:34:21;11.35;;;5.97;;
70850;SDS011;58475;49.662;9.636;2023-07-08T06:36:49;10.05;;;5.47;;
70850;SDS011;58475;49.662;9.636;2023-07-08T06:39:15;8.57;;;5.60;;
70850;SDS011;58475;49.662;9.636;2023-07-08T06:41:41;9.73;;;5.90;;
70850;SDS011;58475;49.662;9.636;2023-07-08T06:44:07;9.52;;;5.57;;
70850;SDS011;58475;49.662;9.636;2023-07-08T06:46:33;10.55;;;6.03;;
70850;SDS011;58475;49.662;9.636;2023-07-08T06:48:59;11.57;;;5.95;;
70850;SDS011;58475;49.662;9.636;2023-07-08T06:51:25;8.95;;;5.45;;
70850;SDS011;58475;49.662;9.636;2023-07-08T06:53:50;8.88;;;5.68;;
70850;SDS011;58475;49.662;9.636;2023-07-08T06:56:16;9.00;;;5.32;;
70850;SDS011;58475;49.662;9.636;2023-07-08T06:58:41;9.60;;;5.63;;
70850;SDS011;58475;49.662;9.636;2023-07-08T07:01:09;8.98;;;5.43;;
70850;SDS011;58475;49.662;9.636;2023-07-08T07:03:35;8.00;;;5.10;;
70850;SDS011;58475;49.662;9.636;2023-07-08T07:06:00;9.02;;;5.47;;
70850;SDS011;58475;49.662;9.636;2023-07-08T07:08:25;9.32;;;5.10;;
70850;SDS011;58475;49.662;9.636;2023-07-08T07:10:51;7.97;;;4.95;;
70850;SDS011;58475;49.662;9.636;2023-07-08T07:13:16;8.82;;;4.90;;
70850;SDS011;58475;49.662;9.636;2023-07-08T07:15:42;8.40;;;5.00;;
70850;SDS011;58475;49.662;9.636;2023-07-08T07:18:07;8.85;;;5.53;;
70850;SDS011;58475;49.662;9.636;2023-07-08T07:20:33;8.95;;;5.45;;
70850;SDS011;58475;49.662;9.636;2023-07-08T07:23:01;8.85;;;5.40;;
70850;SDS011;58475;49.662;9.636;2023-07-08T07:25:26;8.02;;;5.22;;
70850;SDS011;58475;49.662;9.636;2023-07-08T07:27:52;8.05;;;4.85;;
70850;SDS011;58475;49.662;9.636;2023-07-08T07:30:17;9.68;;;4.97;;
70850;SDS011;58475;49.662;9.636;2023-07-08T07:32:43;10.07;;;4.72;;
70850;SDS011;58475;49.662;9.636;2023-07-08T07:35:09;8.63;;;5.35;;
70850;SDS011;58475;49.662;9.636;2023-07-08T07:37:39;10.80;;;5.13;;
70850;SDS011;58475;49.662;9.636;2023-07-08T07:40:07;11.35;;;5.43;;
70850;SDS011;58475;49.662;9.636;2023-07-08T07:42:37;8.88;;;5.00;;
70850;SDS011;58475;49.662;9.636;2023-07-08T07:45:04;7.60;;;4.80;;
70850;SDS011;58475;49.662;9.636;2023-07-08T07:47:30;8.57;;;4.90;;
70850;SDS011;58475;49.662;9.636;2023-07-08T07:49:56;8.73;;;4.90;;
70850;SDS011;58475;49.662;9.636;2023-07-08T07:52:21;7.95;;;4.60;;
70850;SDS011;58475;49.662;9.636;2023-07-08T07:54:49;7.90;;;4.80;;
70850;SDS011;58475;49.662;9.636;2023-07-08T07:57:15;7.85;;;4.88;;
70850;SDS011;58475;49.662;9.636;2023-07-08T07:59:40;8.88;;;4.85;;
70850;SDS011;58475;49.662;9.636;2023-07-08T08:02:05;9.68;;;4.80;;
70850;SDS011;58475;49.662;9.636;2023-07-08T08:04:32;7.07;;;4.65;;
70850;SDS011;58475;49.662;9.636;2023-07-08T08:06:57;7.28;;;4.70;;
70850;SDS011;58475;49.662;9.636;2023-07-08T08:09:23;9.15;;;5.05;;
70850;SDS011;58475;49.662;9.636;2023-07-08T08:11:49;7.65;;;4.97;;
70850;SDS011;58475;49.662;9.636;2023-07-08T08:14:14;8.75;;;5.05;;
70850;SDS011;58475;49.662;9.636;2023-07-08T08:16:39;8.05;;;4.93;;
70850;SDS011;58475;49.662;9.636;2023-07-08T08:19:08;9.73;;;4.80;;
70850;SDS011;58475;49.662;9.636;2023-07-08T08:21:33;8.05;;;5.03;;
70850;SDS011;58475;49.662;9.636;2023-07-08T08:23:58;8.30;;;4.65;;
70850;SDS011;58475;49.662;9.636;2023-07-08T08:26:25;9.25;;;5.15;;
70850;SDS011;58475;49.662;9.636;2023-07-08T08:28:50;8.65;;;4.80;;
70850;SDS011;58475;49.662;9.636;2023-07-08T08:31:16;7.50;;;5.03;;
70850;SDS011;58475;49.662;9.636;2023-07-08T08:33:41;8.05;;;4.93;;
70850;SDS011;58475;49.662;9.636;2023-07-08T08:36:07;8.60;;;5.22;;
70850;SDS011;58475;49.662;9.636;2023-07-08T08:38:32;9.50;;;4.75;;
70850;SDS011;58475;49.662;9.636;2023-07-08T08:40:57;9.45;;;4.60;;
70850;SDS011;58475;49.662;9.636;2023-07-08T08:43:32;8.30;;;5.03;;
70850;SDS011;58475;49.662;9.636;2023-07-08T08:46:05;8.57;;;5.07;;
70850;SDS011;58475;49.662;9.636;2023-07-08T08:48:36;7.43;;;4.60;;
70850;SDS011;58475;49.662;9.636;2023-07-08T08:51:10;7.57;;;4.97;;
70850;SDS011;58475;49.662;9.636;2023-07-08T08:53:39;8.30;;;5.28;;
70850;SDS011;58475;49.662;9.636;2023-07-08T08:56:26;8.55;;;4.95;;
70850;SDS011;58475;49.662;9.636;2023-07-08T09:01:40;8.52;;;5.25;;
70850;SDS011;58475;49.662;9.636;2023-07-08T09:04:08;9.30;;;4.70;;
70850;SDS011;58475;49.662;9.636;2023-07-08T09:06:37;7.95;;;4.80;;
70850;SDS011;58475;49.662;9.636;2023-07-08T09:09:13;7.68;;;5.03;;
70850;SDS011;58475;49.662;9.636;2023-07-08T09:11:54;7.32;;;4.68;;
70850;SDS011;58475;49.662;9.636;2023-07-08T09:14:29;7.70;;;5.10;;
70850;SDS011;58475;49.662;9.636;2023-07-08T09:17:09;7.35;;;5.07;;
70850;SDS011;58475;49.662;9.636;2023-07-08T09:22:31;9.65;;;4.82;;
70850;SDS011;58475;49.662;9.636;2023-07-08T09:24:59;7.95;;;4.85;;
70850;SDS011;58475;49.662;9.636;2023-07-08T09:27:29;7.55;;;4.90;;
70850;SDS011;58475;49.662;9.636;2023-07-08T09:29:55;7.13;;;5.03;;
70850;SDS011;58475;49.662;9.636;2023-07-08T09:32:22;7.88;;;4.95;;
70850;SDS011;58475;49.662;9.636;2023-07-08T09:34:50;8.15;;;4.72;;
70850;SDS011;58475;49.662;9.636;2023-07-08T09:37:37;8.52;;;4.82;;
70850;SDS011;58475;49.662;9.636;2023-07-08T09:40:10;7.22;;;4.82;;
70850;SDS011;58475;49.662;9.636;2023-07-08T09:42:43;7.93;;;4.80;;
70850;SDS011;58475;49.662;9.636;2023-07-08T09:45:16;8.63;;;5.22;;
70850;SDS011;58475;49.662;9.636;2023-07-08T09:47:47;8.98;;;4.78;;
70850;SDS011;58475;49.662;9.636;2023-07-08T09:50:19;8.07;;;5.10;;
70850;SDS011;58475;49.662;9.636;2023-07-08T09:52:47;8.73;;;5.15;;
70850;SDS011;58475;49.662;9.636;2023-07-08T09:55:14;8.77;;;5.03;;
70850;SDS011;58475;49.662;9.636;2023-07-08T09:57:40;10.55;;;4.88;;
70850;SDS011;58475;49.662;9.636;2023-07-08T10:00:10;7.82;;;4.70;;
70850;SDS011;58475;49.662;9.636;2023-07-08T10:02:57;8.02;;;4.82;;
70850;SDS011;58475;49.662;9.636;2023-07-08T10:05:29;8.95;;;5.00;;
70850;SDS011;58475;49.662;9.636;2023-07-08T10:07:58;8.25;;;5.00;;
70850;SDS011;58475;49.662;9.636;2023-07-08T10:10:30;8.45;;;4.88;;
70850;SDS011;58475;49.662;9.636;2023-07-08T10:12:59;9.27;;;5.22;;
70850;SDS011;58475;49.662;9.636;2023-07-08T10:15:31;9.10;;;5.30;;
70850;SDS011;58475;49.662;9.636;2023-07-08T10:18:01;11.00;;;5.32;;
70850;SDS011;58475;49.662;9.636;2023-07-08T10:20:29;8.38;;;5.22;;
70850;SDS011;58475;49.662;9.636;2023-07-08T10:24:06;9.13;;;5.20;;
70850;SDS011;58475;49.662;9.636;2023-07-08T10:26:10;8.73;;;4.70;;
70850;SDS011;58475;49.662;9.636;2023-07-08T10:36:55;8.45;;;5.45;;
70850;SDS011;58475;49.662;9.636;2023-07-08T10:42:27;7.85;;;4.88;;
70850;SDS011;58475;49.662;9.636;2023-07-08T10:45:13;9.25;;;5.38;;
70850;SDS011;58475;49.662;9.636;2023-07-08T10:50:29;8.27;;;4.97;;
70850;SDS011;58475;49.662;9.636;2023-07-08T10:53:25;10.02;;;5.07;;
70850;SDS011;58475;49.662;9.636;2023-07-08T10:55:58;9.30;;;5.55;;
70850;SDS011;58475;49.662;9.636;2023-07-08T11:06:26;9.52;;;4.80;;
70850;SDS011;58475;49.662;9.636;2023-07-08T11:08:57;7.65;;;4.88;;
70850;SDS011;58475;49.662;9.636;2023-07-08T11:14:40;9.18;;;5.03;;
70850;SDS011;58475;49.662;9.636;2023-07-08T11:17:29;8.02;;;4.63;;
70850;SDS011;58475;49.662;9.636;2023-07-08T11:20:02;7.65;;;4.72;;
70850;SDS011;58475;49.662;9.636;2023-07-08T11:22:39;9.45;;;4.88;;
70850;SDS011;58475;49.662;9.636;2023-07-08T11:25:16;9.68;;;4.95;;
70850;SDS011;58475;49.662;9.636;2023-07-08T11:32:35;8.80;;;4.97;;
70850;SDS011;58475;49.662;9.636;2023-07-08T11:35:03;8.73;;;5.15;;
70850;SDS011;58475;49.662;9.636;2023-07-08T11:37:30;9.27;;;4.97;;
70850;SDS011;58475;49.662;9.636;2023-07-08T11:39:58;9.82;;;4.70;;
70850;SDS011;58475;49.662;9.636;2023-07-08T11:42:49;8.38;;;5.22;;
70850;SDS011;58475;49.662;9.636;2023-07-08T11:47:44;7.82;;;5.05;;
70850;SDS011;58475;49.662;9.636;2023-07-08T11:50:25;9.32;;;5.10;;
70850;SDS011;58475;49.662;9.636;2023-07-08T11:52:57;8.95;;;5.13;;
70850;SDS011;58475;49.662;9.636;2023-07-08T11:55:26;8.38;;;4.75;;
70850;SDS011;58475;49.662;9.636;2023-07-08T11:58:00;8.23;;;4.82;;
70850;SDS011;58475;49.662;9.636;2023-07-08T12:00:29;9.30;;;4.95;;
70850;SDS011;58475;49.662;9.636;2023-07-08T12:02:58;9.02;;;5.32;;
70850;SDS011;58475;49.662;9.636;2023-07-08T12:05:37;9.88;;;4.70;;
70850;SDS011;58475;49.662;9.636;2023-07-08T12:08:12;11.07;;;6.45;;
70850;SDS011;58475;49.662;9.636;2023-07-08T12:10:52;9.27;;;4.70;;
70850;SDS011;58475;49.662;9.636;2023-07-08T12:13:18;11.80;;;4.78;;
70850;SDS011;58475;49.662;9.636;2023-07-08T12:15:47;8.13;;;4.68;;
70850;SDS011;58475;49.662;9.636;2023-07-08T12:18:14;11.02;;;4.93;;
70850;SDS011;58475;49.662;9.636;2023-07-08T12:20:42;8.15;;;4.50;;
70850;SDS011;58475;49.662;9.636;2023-07-08T12:23:11;7.72;;;4.70;;
70850;SDS011;58475;49.662;9.636;2023-07-08T12:25:45;8.82;;;5.00;;
70850;SDS011;58475;49.662;9.636;2023-07-08T12:28:11;8.88;;;4.60;;
70850;SDS011;58475;49.662;9.636;2023-07-08T12:30:40;9.03;;;4.53;;
70850;SDS011;58475;49.662;9.636;2023-07-08T12:33:22;7.72;;;4.72;;
70850;SDS011;58475;49.662;9.636;2023-07-08T12:35:52;9.20;;;5.00;;
70850;SDS011;58475;49.662;9.636;2023-07-08T12:38:21;9.18;;;4.35;;
70850;SDS011;58475;49.662;9.636;2023-07-08T12:40:53;8.52;;;4.80;;
70850;SDS011;58475;49.662;9.636;2023-07-08T12:43:20;10.77;;;4.78;;
70850;SDS011;58475;49.662;9.636;2023-07-08T12:45:46;7.65;;;4.78;;
70850;SDS011;58475;49.662;9.636;2023-07-08T12:48:11;8.80;;;4.57;;
70850;SDS011;58475;49.662;9.636;2023-07-08T12:50:37;7.13;;;4.20;;
70850;SDS011;58475;49.662;9.636;2023-07-08T12:53:04;7.97;;;4.53;;
70850;SDS011;58475;49.662;9.636;2023-07-08T12:55:34;10.13;;;4.80;;
70850;SDS011;58475;49.662;9.636;2023-07-08T12:58:01;7.53;;;4.32;;
70850;SDS011;58475;49.662;9.636;2023-07-08T13:00:28;8.60;;;4.40;;
70850;SDS011;58475;49.662;9.636;2023-07-08T13:05:43;7.82;;;4.75;;
70850;SDS011;58475;49.662;9.636;2023-07-08T13:08:13;7.65;;;4.50;;
70850;SDS011;58475;49.662;9.636;2023-07-08T13:10:40;8.73;;;4.63;;
70850;SDS011;58475;49.662;9.636;2023-07-08T13:13:07;10.40;;;4.40;;
70850;SDS011;58475;49.662;9.636;2023-07-08T13:15:38;7.68;;;4.45;;
70850;SDS011;58475;49.662;9.636;2023-07-08T13:18:07;8.50;;;4.72;;
70850;SDS011;58475;49.662;9.636;2023-07-08T13:20:39;9.15;;;4.47;;
70850;SDS011;58475;49.662;9.636;2023-07-08T13:23:07;7.53;;;4.40;;
70850;SDS011;58475;49.662;9.636;2023-07-08T13:25:33;9.13;;;4.10;;
70850;SDS011;58475;49.662;9.636;2023-07-08T13:28:13;9.15;;;4.10;;
70850;SDS011;58475;49.662;9.636;2023-07-08T13:30:49;8.57;;;4.43;;
70850;SDS011;58475;49.662;9.636;2023-07-08T13:33:17;7.45;;;4.20;;
70850;SDS011;58475;49.662;9.636;2023-07-08T13:35:46;8.75;;;4.03;;
70850;SDS011;58475;49.662;9.636;2023-07-08T13:40:46;8.88;;;4.18;;
70850;SDS011;58475;49.662;9.636;2023-07-08T13:43:14;8.00;;;4.20;;
70850;SDS011;58475;49.662;9.636;2023-07-08T13:45:43;7.78;;;4.30;;
70850;SDS011;58475;49.662;9.636;2023-07-08T13:58:53;9.93;;;4.63;;
70850;SDS011;58475;49.662;9.636;2023-07-08T14:01:26;7.70;;;4.20;;
70850;SDS011;58475;49.662;9.636;2023-07-08T14:03:54;8.52;;;4.22;;
70850;SDS011;58475;49.662;9.636;2023-07-08T14:06:22;7.28;;;3.80;;
70850;SDS011;58475;49.662;9.636;2023-07-08T14:08:53;8.10;;;3.87;;
70850;SDS011;58475;49.662;9.636;2023-07-08T14:11:24;7.60;;;3.95;;
70850;SDS011;58475;49.662;9.636;2023-07-08T14:13:50;8.25;;;3.95;;
70850;SDS011;58475;49.662;9.636;2023-07-08T14:16:23;7.03;;;3.67;;
70850;SDS011;58475;49.662;9.636;2023-07-08T14:18:52;7.78;;;3.88;;
70850;SDS011;58475;49.662;9.636;2023-07-08T14:21:18;8.23;;;3.53;;
70850;SDS011;58475;49.662;9.636;2023-07-08T14:23:43;7.03;;;3.30;;
70850;SDS011;58475;49.662;9.636;2023-07-08T14:26:10;7.35;;;3.42;;
70850;SDS011;58475;49.662;9.636;2023-07-08T14:28:36;6.90;;;3.50;;
70850;SDS011;58475;49.662;9.636;2023-07-08T14:31:01;9.43;;;3.58;;
70850;SDS011;58475;49.662;9.636;2023-07-08T14:33:27;6.53;;;3.40;;
70850;SDS011;58475;49.662;9.636;2023-07-08T14:35:52;8.27;;;3.63;;
70850;SDS011;58475;49.662;9.636;2023-07-08T14:38:17;7.88;;;3.47;;
70850;SDS011;58475;49.662;9.636;2023-07-08T14:40:43;8.02;;;3.40;;
70850;SDS011;58475;49.662;9.636;2023-07-08T14:45:41;8.10;;;3.85;;
70850;SDS011;58475;49.662;9.636;2023-07-08T14:48:10;9.38;;;3.25;;
70850;SDS011;58475;49.662;9.636;2023-07-08T14:50:36;7.47;;;3.50;;
70850;SDS011;58475;49.662;9.636;2023-07-08T14:53:01;8.75;;;3.50;;
70850;SDS011;58475;49.662;9.636;2023-07-08T14:55:27;7.60;;;3.60;;
70850;SDS011;58475;49.662;9.636;2023-07-08T14:57:52;7.93;;;3.40;;
70850;SDS011;58475;49.662;9.636;2023-07-08T15:00:18;9.68;;;3.83;;
70850;SDS011;58475;49.662;9.636;2023-07-08T15:02:45;9.00;;;3.85;;
70850;SDS011;58475;49.662;9.636;2023-07-08T15:05:21;7.57;;;3.63;;
70850;SDS011;58475;49.662;9.636;2023-07-08T15:07:49;9.93;;;3.63;;
70850;SDS011;58475;49.662;9.636;2023-07-08T15:10:15;9.05;;;3.47;;
70850;SDS011;58475;49.662;9.636;2023-07-08T15:12:41;7.68;;;3.67;;
70850;SDS011;58475;49.662;9.636;2023-07-08T15:15:13;8.65;;;3.30;;
70850;SDS011;58475;49.662;9.636;2023-07-08T15:17:40;6.88;;;3.10;;
70850;SDS011;58475;49.662;9.636;2023-07-08T15:20:12;8.27;;;3.08;;
70850;SDS011;58475;49.662;9.636;2023-07-08T15:22:39;7.38;;;3.00;;
70850;SDS011;58475;49.662;9.636;2023-07-08T15:25:06;7.10;;;2.85;;
70850;SDS011;58475;49.662;9.636;2023-07-08T15:27:34;5.75;;;2.90;;
70850;SDS011;58475;49.662;9.636;2023-07-08T15:29:59;6.95;;;2.97;;
70850;SDS011;58475;49.662;9.636;2023-07-08T15:32:24;6.22;;;3.10;;
70850;SDS011;58475;49.662;9.636;2023-07-08T15:34:50;7.43;;;3.10;;
70850;SDS011;58475;49.662;9.636;2023-07-08T15:37:15;7.32;;;3.35;;
70850;SDS011;58475;49.662;9.636;2023-07-08T15:39:40;6.65;;;3.10;;
70850;SDS011;58475;49.662;9.636;2023-07-08T15:42:09;6.03;;;2.70;;
70850;SDS011;58475;49.662;9.636;2023-07-08T15:44:37;8.32;;;3.25;;
70850;SDS011;58475;49.662;9.636;2023-07-08T15:47:08;8.13;;;2.80;;
70850;SDS011;58475;49.662;9.636;2023-07-08T15:49:37;5.95;;;2.88;;
70850;SDS011;58475;49.662;9.636;2023-07-08T15:52:03;6.20;;;2.85;;
70850;SDS011;58475;49.662;9.636;2023-07-08T15:54:28;6.05;;;3.00;;
70850;SDS011;58475;49.662;9.636;2023-07-08T15:56:54;6.50;;;2.78;;
70850;SDS011;58475;49.662;9.636;2023-07-08T15:59:21;6.00;;;2.90;;
70850;SDS011;58475;49.662;9.636;2023-07-08T16:01:50;6.72;;;2.80;;